createdAt,value
2023-01-24T00:01:18.264Z,82.77
2023-01-24T00:03:46.599Z,82.64
2023-01-24T00:06:15.157Z,82.38
2023-01-24T00:08:43.413Z,82.33
2023-01-24T00:11:12.392Z,82.31
2023-01-24T00:13:40.604Z,82.34
2023-01-24T00:16:20.101Z,82.38
2023-01-24T00:18:48.921Z,82.00
2023-01-24T00:21:23.666Z,81.51
2023-01-24T00:23:53.686Z,81.26
2023-01-24T00:26:22.916Z,81.61
2023-01-24T00:28:52.289Z,82.02
2023-01-24T00:31:20.617Z,82.13
2023-01-24T00:33:49.256Z,82.33
2023-01-24T00:36:21.231Z,82.35
2023-01-24T00:38:49.483Z,82.71
2023-01-24T00:41:17.684Z,82.76
2023-01-24T00:43:46.657Z,82.68
2023-01-24T00:46:15.006Z,82.69
2023-01-24T00:48:45.900Z,82.85
2023-01-24T00:51:15.611Z,82.94
2023-01-24T00:53:44.020Z,82.99
2023-01-24T00:56:12.193Z,83.31
2023-01-24T00:58:40.549Z,83.64
2023-01-24T01:01:08.981Z,83.77
2023-01-24T01:03:38.840Z,83.83
2023-01-24T01:06:09.040Z,83.80
2023-01-24T01:08:37.727Z,83.89
2023-01-24T01:11:06.309Z,84.12
2023-01-24T01:13:34.682Z,84.09
2023-01-24T01:16:07.273Z,83.87
2023-01-24T01:18:36.087Z,83.96
2023-01-24T01:21:04.596Z,84.03
2023-01-24T01:23:33.505Z,84.23
2023-01-24T01:26:02.550Z,84.38
2023-01-24T01:28:30.792Z,84.58
2023-01-24T03:41:04.546Z,90.77
2023-01-24T03:43:33.693Z,89.20
2023-01-24T03:46:01.967Z,89.22
2023-01-24T03:48:40.131Z,89.10
2023-01-24T03:51:28.137Z,88.85
2023-01-24T03:53:56.660Z,88.65
2023-01-24T03:56:28.937Z,88.20
2023-01-24T03:58:59.856Z,87.99
2023-01-24T04:01:30.447Z,88.00
2023-01-24T04:04:08.722Z,87.74
2023-01-24T04:06:36.875Z,87.64
2023-01-24T04:09:06.470Z,87.69
2023-01-24T04:11:35.350Z,87.60
2023-01-24T04:14:09.365Z,87.42
2023-01-24T04:16:40.926Z,87.05
2023-01-24T04:19:17.328Z,86.50
2023-01-24T04:21:45.542Z,86.37
2023-01-24T04:24:14.164Z,86.34
2023-01-24T04:26:44.582Z,86.17
2023-01-24T04:29:17.214Z,86.10
2023-01-24T04:31:46.748Z,85.90
2023-01-24T04:34:36.915Z,85.68
2023-01-24T04:37:05.667Z,85.39
2023-01-24T04:39:33.858Z,85.15
2023-01-24T04:42:11.940Z,85.47
2023-01-24T04:44:40.432Z,85.50
2023-01-24T04:47:10.866Z,85.67
2023-01-24T04:49:40.604Z,85.23
2023-01-24T04:52:12.244Z,84.50
2023-01-24T04:55:01.043Z,84.21
2023-01-24T04:57:30.520Z,84.75
2023-01-24T04:59:58.677Z,84.91
2023-01-24T05:02:33.758Z,84.66
2023-01-24T05:05:03.031Z,84.28
2023-01-24T05:07:31.394Z,84.21
2023-01-24T05:10:03.166Z,84.35
2023-01-24T05:12:31.911Z,84.63
2023-01-24T05:15:02.924Z,84.71
2023-01-24T05:17:31.735Z,84.62
2023-01-24T05:20:00.172Z,84.41
2023-01-24T05:22:29.507Z,84.39
2023-01-24T05:24:57.749Z,84.51
2023-01-24T05:27:26.380Z,84.44
2023-01-24T05:29:58.625Z,84.43
2023-01-24T05:32:27.969Z,84.13
2023-01-24T05:34:56.113Z,84.08
2023-01-24T05:37:24.978Z,83.91
2023-01-24T05:39:53.271Z,83.97
2023-01-24T05:42:21.412Z,84.14
2023-01-24T05:44:51.826Z,84.17
2023-01-24T05:47:20.239Z,84.20
2023-01-24T05:49:49.360Z,84.17
2023-01-24T05:52:22.737Z,84.18
2023-01-24T05:54:53.140Z,84.12
2023-01-24T05:57:31.505Z,84.29
2023-01-24T06:00:19.372Z,84.40
2023-01-24T06:03:11.166Z,84.36
2023-01-24T06:05:39.805Z,84.20
2023-01-24T06:08:10.171Z,84.27
2023-01-24T06:10:39.608Z,84.52
2023-01-24T06:13:13.164Z,84.84
2023-01-24T06:15:41.912Z,85.09
2023-01-24T06:18:15.384Z,84.93
2023-01-24T06:20:45.079Z,84.72
2023-01-24T06:23:21.966Z,84.68
2023-01-24T06:25:50.548Z,84.78
2023-01-24T06:28:18.874Z,84.86
2023-01-24T06:31:42.939Z,84.88
2023-01-24T06:34:26.412Z,84.60
2023-01-24T06:37:15.947Z,84.40
2023-01-24T06:39:52.792Z,84.43
2023-01-24T06:42:22.112Z,84.61
2023-01-24T06:44:50.416Z,84.79
2023-01-24T06:47:18.887Z,84.69
2023-01-24T06:49:47.132Z,84.47
2023-01-24T06:52:15.414Z,83.94
2023-01-24T06:54:43.565Z,83.89
2023-01-24T06:57:11.710Z,83.91
2023-01-24T06:59:40.918Z,84.17
2023-01-24T07:02:11.014Z,84.18
2023-01-24T07:04:39.074Z,83.79
2023-01-24T10:21:41.835Z,83.88
2023-01-24T10:24:22.523Z,82.46
2023-01-24T10:26:52.362Z,82.48
2023-01-24T10:29:28.346Z,81.82
2023-01-24T10:32:05.064Z,80.94
2023-01-24T10:34:43.109Z,79.69
2023-01-24T10:37:17.184Z,79.81
2023-01-24T10:39:46.045Z,79.72
2023-01-24T10:42:33.332Z,80.05
2023-01-24T10:45:24.708Z,79.94
2023-01-24T10:48:32.569Z,79.72
2023-01-24T10:51:21.768Z,79.17
2023-01-24T10:53:56.062Z,78.42
2023-01-24T10:56:24.439Z,78.46
2023-01-24T10:59:13.747Z,77.78
2023-01-24T11:01:48.192Z,77.37
2023-01-24T11:04:26.689Z,77.79
2023-01-24T11:06:54.965Z,77.34
2023-01-24T11:09:30.939Z,76.83
2023-01-24T11:11:59.935Z,76.03
2023-01-24T11:14:33.824Z,76.62
2023-01-24T11:17:02.618Z,77.25
2023-01-24T11:19:40.304Z,77.04
2023-01-24T11:22:23.436Z,76.95
2023-01-24T11:24:53.847Z,76.34
2023-01-24T11:27:33.626Z,76.70
2023-01-24T11:30:14.350Z,77.06
2023-01-24T11:33:04.820Z,77.06
2023-01-24T11:35:38.718Z,77.06
2023-01-24T11:38:42.519Z,77.21
2023-01-24T11:41:11.857Z,77.62
2023-01-24T11:43:43.422Z,77.75
2023-01-24T11:46:25.904Z,76.79
2023-01-24T11:49:00.238Z,77.18
2023-01-24T11:51:31.511Z,77.28
2023-01-24T11:54:09.134Z,77.52
2023-01-24T11:57:02.049Z,77.64
2023-01-24T11:59:42.908Z,77.34
2023-01-24T12:02:19.693Z,77.12
2023-01-24T12:05:06.350Z,77.40
2023-01-24T12:08:12.780Z,77.91
2023-01-24T12:11:38.453Z,77.66
2023-01-24T12:14:21.886Z,77.38
2023-01-24T12:17:32.069Z,77.58
2023-01-24T12:20:31.030Z,77.57
2023-01-24T12:23:22.360Z,77.50
2023-01-24T12:25:58.397Z,77.88
2023-01-24T12:28:44.770Z,77.75
2023-01-24T12:31:16.970Z,77.37
2023-01-24T12:33:51.164Z,76.92
2023-01-24T12:36:45.196Z,77.28
2023-01-24T12:39:20.696Z,77.76
2023-01-24T12:42:06.100Z,77.79
2023-01-24T12:44:43.034Z,77.88
2023-01-24T12:47:11.338Z,77.67
2023-01-24T12:50:05.543Z,77.69
2023-01-24T12:52:49.149Z,77.63
2023-01-24T12:55:26.366Z,77.75
2023-01-24T12:58:02.468Z,77.78
2023-01-24T13:00:42.878Z,77.90
2023-01-24T16:30:27.797Z,80.88
2023-01-24T16:32:56.342Z,79.78
2023-01-24T16:35:25.236Z,79.44
2023-01-24T16:37:53.709Z,79.05
2023-01-24T16:40:22.406Z,78.63
2023-01-24T16:42:50.664Z,78.48
2023-01-24T16:45:25.340Z,78.31
2023-01-24T16:47:55.156Z,78.12
2023-01-24T16:50:27.970Z,77.43
2023-01-24T16:52:59.890Z,77.17
2023-01-24T16:55:29.783Z,76.76
2023-01-24T16:58:00.893Z,76.71
2023-01-24T17:00:30.506Z,76.68
2023-01-24T17:03:00.114Z,76.76
2023-01-24T17:05:30.274Z,76.96
2023-01-24T17:08:02.123Z,76.88
2023-01-24T17:10:32.725Z,76.65
2023-01-24T17:13:21.283Z,76.53
2023-01-24T17:15:53.309Z,76.55
2023-01-24T17:18:25.541Z,76.66
2023-01-24T17:20:56.987Z,76.63
2023-01-24T17:23:44.875Z,76.86
2023-01-24T17:26:52.349Z,76.96
2023-01-24T17:29:30.839Z,76.96
2023-01-24T17:31:59.148Z,76.82
2023-01-24T17:34:27.614Z,76.57
2023-01-24T17:36:59.861Z,76.56
2023-01-24T17:39:50.283Z,76.38
2023-01-24T17:42:19.345Z,76.39
2023-01-24T17:44:47.993Z,76.56
2023-01-24T17:47:17.274Z,76.64
2023-01-24T17:49:50.355Z,76.69
2023-01-24T17:52:27.395Z,76.44
2023-01-24T17:54:57.769Z,76.39
2023-01-24T17:57:32.188Z,76.44
2023-01-24T18:00:15.842Z,76.42
2023-01-24T18:02:49.238Z,76.48
2023-01-24T18:05:17.305Z,76.39
2023-01-24T18:07:45.838Z,76.56
2023-01-24T18:10:15.308Z,76.47
2023-01-24T18:12:45.044Z,76.22
2023-01-24T18:15:14.198Z,76.23
2023-01-24T18:17:42.638Z,76.17
2023-01-24T18:20:24.550Z,76.25
2023-01-24T18:23:04.207Z,76.12
2023-01-24T18:25:43.570Z,76.24
2023-01-24T18:29:19.387Z,76.30
2023-01-24T18:32:01.537Z,75.98
2023-01-24T18:34:35.509Z,75.85
2023-01-24T18:37:05.461Z,75.81
2023-01-24T18:39:38.269Z,75.97
2023-01-24T18:42:08.351Z,75.78
2023-01-24T18:44:37.112Z,75.70
2023-01-24T18:47:05.521Z,75.72
2023-01-24T18:52:17.654Z,75.47
2023-01-24T18:54:58.305Z,75.36
2023-01-24T18:57:29.197Z,75.20
2023-01-24T18:59:57.328Z,75.23
2023-01-24T21:59:43.600Z,85.20
2023-01-24T22:02:17.883Z,83.89
2023-01-24T22:04:45.795Z,83.84
2023-01-24T22:07:17.290Z,83.66
2023-01-24T22:09:44.730Z,83.22
2023-01-24T22:12:14.723Z,83.01
2023-01-24T22:14:42.952Z,82.85
2023-01-24T22:17:18.808Z,82.65
2023-01-24T22:19:53.343Z,82.46
2023-01-24T22:22:29.922Z,82.16
2023-01-24T22:25:01.078Z,81.80
2023-01-24T22:27:28.233Z,81.72
2023-01-24T22:29:55.309Z,81.66
2023-01-24T22:32:22.657Z,81.64
2023-01-24T22:34:49.933Z,81.59
2023-01-24T22:37:30.359Z,81.37
2023-01-24T22:39:57.470Z,81.19
2023-01-24T22:42:24.370Z,80.77
2023-01-24T22:44:51.242Z,80.65
2023-01-24T22:47:18.987Z,80.70
2023-01-24T22:49:45.888Z,80.71
2023-01-24T22:52:12.896Z,80.61
2023-01-24T22:54:40.520Z,80.54
2023-01-24T22:57:07.612Z,80.32
2023-01-24T22:59:35.042Z,80.24
2023-01-24T23:02:03.550Z,80.22
2023-01-24T23:04:30.986Z,80.32
2023-01-24T23:06:57.917Z,80.41
2023-01-24T23:09:25.040Z,80.49
2023-01-24T23:11:51.712Z,80.60
2023-01-24T23:14:37.174Z,80.41
2023-01-24T23:17:04.768Z,80.14
2023-01-24T23:20:11.497Z,80.08
2023-01-24T23:22:38.252Z,80.12
2023-01-24T23:25:05.788Z,80.25
2023-01-24T23:27:34.702Z,80.36
2023-01-24T23:30:18.838Z,80.28
2023-01-24T23:32:46.505Z,80.03
2023-01-24T23:35:13.802Z,79.96
2023-01-24T23:37:40.687Z,80.18
2023-01-24T23:40:08.866Z,80.18
2023-01-24T23:42:35.921Z,80.25
2023-01-24T23:45:04.582Z,80.32
2023-01-24T23:47:32.295Z,80.26
2023-01-24T23:49:59.114Z,80.04
2023-01-24T23:52:25.926Z,79.96
2023-01-24T23:54:52.736Z,80.04
2023-01-24T23:57:19.668Z,80.24
2023-01-24T23:59:46.527Z,80.19
